createdAt,value
2022-08-17T00:01:01.661Z,76034.81
2022-08-17T00:03:05.794Z,76030.84
2022-08-17T00:04:39.331Z,76046.66
2022-08-17T00:06:15.017Z,76020.97
2022-08-17T00:07:51.957Z,76019.00
2022-08-17T00:09:25.159Z,76015.03
2022-08-17T00:10:59.638Z,76011.09
2022-08-17T00:12:42.595Z,76007.13
2022-08-17T00:14:25.055Z,76007.13
2022-08-17T00:16:03.083Z,76001.19
2022-08-17T00:17:36.843Z,75999.22
2022-08-17T00:19:11.424Z,76003.16
2022-08-17T00:20:45.097Z,75999.22
2022-08-17T00:22:34.233Z,75997.25
2022-08-17T00:24:08.754Z,75995.25
2022-08-17T00:25:43.998Z,75997.25
2022-08-17T00:27:16.883Z,75999.22
2022-08-17T00:29:09.086Z,76003.16
2022-08-17T00:30:51.104Z,76003.16
2022-08-17T00:33:15.123Z,76011.09
2022-08-17T00:34:20.599Z,76007.13
2022-08-17T00:35:54.273Z,76013.06
2022-08-17T00:37:30.473Z,76015.03
2022-08-17T00:39:04.750Z,76019.00
2022-08-17T00:40:46.069Z,76020.97
2022-08-17T00:42:21.171Z,76022.94
2022-08-17T00:43:55.712Z,76026.91
2022-08-17T00:45:29.056Z,76026.91
2022-08-17T00:47:02.248Z,76022.94
2022-08-17T00:48:36.137Z,76022.94
2022-08-17T00:50:13.325Z,76032.84
2022-08-17T00:52:02.261Z,76032.84
2022-08-17T00:53:45.953Z,76034.81
2022-08-17T00:55:19.463Z,76042.72
2022-08-17T00:56:55.586Z,76044.69
2022-08-17T00:58:35.970Z,76042.72
2022-08-17T01:00:13.188Z,76038.75
2022-08-17T01:01:48.586Z,76038.75
2022-08-17T01:03:25.819Z,76042.72
2022-08-17T01:05:01.530Z,76042.72
2022-08-17T01:06:36.085Z,76034.81
2022-08-17T01:08:16.298Z,76030.84
2022-08-17T01:09:49.902Z,76026.91
2022-08-17T01:11:23.599Z,76024.91
2022-08-17T01:12:57.391Z,76013.06
2022-08-17T01:14:31.007Z,76011.09
2022-08-17T01:16:06.794Z,75999.22
2022-08-17T01:17:41.094Z,75999.22
2022-08-17T01:19:25.912Z,75987.34
2022-08-17T01:21:03.912Z,75971.53
2022-08-17T01:22:37.407Z,75943.88
2022-08-17T01:24:10.772Z,75900.38
2022-08-17T01:25:44.782Z,75854.91
2022-08-17T01:27:22.404Z,75793.59
2022-08-17T01:28:56.032Z,75734.28
2022-08-17T01:30:58.701Z,75663.13
2022-08-17T01:32:23.121Z,75627.53
2022-08-17T01:33:58.941Z,75589.97
2022-08-17T01:35:33.872Z,75572.19
2022-08-17T01:37:07.735Z,75536.59
2022-08-17T01:38:41.281Z,75465.44
2022-08-17T01:40:31.886Z,75455.56
2022-08-17T01:42:12.433Z,75398.22
2022-08-17T01:43:56.483Z,75406.13
2022-08-17T01:45:34.034Z,75421.94
2022-08-17T01:47:07.155Z,75396.25
2022-08-17T01:48:41.041Z,75386.38
2022-08-17T01:50:16.607Z,75431.84
2022-08-17T01:51:50.339Z,75477.28
2022-08-17T01:53:32.987Z,75564.28
2022-08-17T01:55:07.839Z,75588.00
2022-08-17T01:56:43.417Z,75639.41
2022-08-17T01:58:20.809Z,75667.06
2022-08-17T01:59:54.452Z,75730.34
2022-08-17T02:01:35.121Z,75708.59
2022-08-17T02:03:09.395Z,75645.34
2022-08-17T02:04:42.773Z,75663.13
2022-08-17T02:06:27.933Z,75641.38
2022-08-17T02:08:02.259Z,75542.53
2022-08-17T02:09:35.831Z,75568.22
2022-08-17T02:11:17.261Z,75617.66
2022-08-17T02:12:50.981Z,75615.69
2022-08-17T02:14:24.788Z,75623.59
2022-08-17T02:15:58.606Z,75560.31
2022-08-17T02:17:33.617Z,75485.19
2022-08-17T02:19:08.737Z,75544.50
2022-08-17T02:20:43.287Z,75607.78
2022-08-17T02:22:19.150Z,75631.50
2022-08-17T02:23:52.651Z,75548.47
2022-08-17T02:25:26.122Z,75461.47
2022-08-17T02:26:59.504Z,75336.94
2022-08-17T02:28:32.966Z,75184.72
2022-08-17T02:30:58.942Z,75054.28
2022-08-17T02:32:02.269Z,74957.41
2022-08-17T02:33:42.009Z,74919.88
2022-08-17T02:35:16.677Z,74815.09
2022-08-17T02:36:53.754Z,74797.31
2022-08-17T02:38:27.338Z,74803.25
2022-08-17T02:40:01.045Z,74710.34
2022-08-17T02:41:34.651Z,74710.34
2022-08-17T02:43:08.858Z,74724.19
2022-08-17T02:44:46.873Z,74763.72
2022-08-17T02:46:20.225Z,74749.88
2022-08-17T02:47:53.630Z,74779.53
2022-08-17T02:49:26.493Z,74734.06
2022-08-17T02:51:00.770Z,74655.00
2022-08-17T02:52:42.387Z,74734.06
2022-08-17T02:54:39.322Z,74623.38
2022-08-17T02:56:10.502Z,74643.16
2022-08-17T02:57:44.228Z,74564.09
2022-08-17T02:59:17.505Z,74506.78
2022-08-17T03:00:50.808Z,74552.25
2022-08-17T03:02:23.673Z,74437.63
2022-08-17T03:03:57.567Z,74427.72
2022-08-17T03:05:32.627Z,74354.59
2022-08-17T03:07:06.241Z,74245.91
2022-08-17T03:08:42.819Z,74236.03
2022-08-17T03:10:17.210Z,74192.56
2022-08-17T03:11:53.108Z,74180.69
2022-08-17T03:13:29.040Z,74216.28
2022-08-17T03:15:09.150Z,74255.78
2022-08-17T03:16:42.802Z,74255.78
2022-08-17T03:18:25.802Z,74232.06
2022-08-17T03:19:59.791Z,74129.31
2022-08-17T03:21:33.025Z,74026.56
2022-08-17T03:23:06.788Z,74052.25
2022-08-17T03:24:42.862Z,74085.84
2022-08-17T03:26:16.570Z,74034.47
2022-08-17T03:27:51.434Z,74164.88
2022-08-17T03:29:28.066Z,74113.50
2022-08-17T03:31:01.291Z,74196.50
2022-08-17T03:32:42.229Z,74149.06
2022-08-17T03:34:16.625Z,74287.41
2022-08-17T03:35:49.884Z,74247.88
2022-08-17T03:37:23.026Z,74291.38
2022-08-17T03:38:56.347Z,74236.03
2022-08-17T03:40:55.317Z,74099.66
2022-08-17T03:42:32.564Z,74034.47
2022-08-17T03:44:06.285Z,74046.31
2022-08-17T03:45:58.021Z,73996.91
2022-08-17T03:47:49.475Z,74137.22
2022-08-17T03:49:40.771Z,74164.88
2022-08-17T03:51:38.113Z,74068.06
2022-08-17T03:53:35.972Z,74060.16
2022-08-17T03:55:35.940Z,74073.97
2022-08-17T03:57:11.046Z,73943.56
2022-08-17T03:58:44.752Z,73939.59
2022-08-17T04:00:18.395Z,73939.59
2022-08-17T04:01:53.710Z,73882.31
2022-08-17T04:03:27.952Z,73817.09
2022-08-17T04:05:01.679Z,73809.19
2022-08-17T04:06:35.882Z,73773.63
2022-08-17T04:08:12.037Z,73704.47
2022-08-17T04:09:45.355Z,73825.00
2022-08-17T04:11:18.497Z,73817.09
2022-08-17T04:12:55.884Z,73734.09
2022-08-17T04:14:31.492Z,73730.16
2022-08-17T04:16:04.870Z,73710.38
2022-08-17T04:17:38.205Z,73666.91
2022-08-17T04:19:11.881Z,73791.41
2022-08-17T04:20:46.311Z,73761.75
2022-08-17T04:22:30.896Z,73730.16
2022-08-17T04:24:09.287Z,73781.53
2022-08-17T04:25:46.650Z,73708.41
2022-08-17T04:27:20.462Z,73672.84
2022-08-17T04:28:53.834Z,73759.78
2022-08-17T04:30:29.902Z,73777.56
2022-08-17T04:32:03.498Z,73716.31
2022-08-17T04:33:38.384Z,73682.72
2022-08-17T04:35:11.894Z,73664.94
2022-08-17T04:36:50.093Z,73745.94
2022-08-17T04:38:25.963Z,73825.00
2022-08-17T04:40:19.428Z,73896.13
2022-08-17T04:42:12.457Z,73848.72
2022-08-17T04:43:47.007Z,73805.22
2022-08-17T04:45:20.848Z,73745.94
2022-08-17T04:46:56.718Z,73730.16
2022-08-17T04:48:37.391Z,73635.31
2022-08-17T04:50:11.057Z,73578.00
2022-08-17T04:51:55.688Z,73611.59
2022-08-17T04:53:30.065Z,73702.47
2022-08-17T04:55:04.785Z,73714.34
2022-08-17T04:56:39.662Z,73836.84
2022-08-17T04:58:13.426Z,73753.84
2022-08-17T04:59:49.489Z,73619.50
2022-08-17T05:01:24.595Z,73651.09
2022-08-17T05:02:58.506Z,73694.59
2022-08-17T05:04:34.581Z,73694.59
2022-08-17T05:06:09.655Z,73649.13
2022-08-17T05:07:43.379Z,73747.94
2022-08-17T05:09:17.999Z,73585.91
2022-08-17T05:10:51.618Z,73613.56
2022-08-17T05:12:27.714Z,73676.78
2022-08-17T05:14:01.601Z,73692.59
2022-08-17T05:15:35.958Z,73625.41
2022-08-17T05:17:11.376Z,73670.88
2022-08-17T05:18:45.173Z,73706.44
2022-08-17T05:20:18.472Z,73623.44
2022-08-17T05:21:55.336Z,73674.81
2022-08-17T05:23:42.109Z,73783.50
2022-08-17T05:25:16.643Z,73722.25
2022-08-17T05:26:50.216Z,73777.56
2022-08-17T05:28:29.639Z,73753.84
2022-08-17T05:30:03.222Z,73668.88
2022-08-17T05:31:36.757Z,73591.84
2022-08-17T05:33:20.613Z,73528.59
2022-08-17T05:35:00.244Z,73591.84
2022-08-17T05:36:41.903Z,73730.16
2022-08-17T05:38:18.372Z,73643.19
2022-08-17T05:39:52.051Z,73619.50
2022-08-17T05:41:25.828Z,73635.31
2022-08-17T05:43:13.243Z,73611.59
2022-08-17T05:44:46.958Z,73662.97
2022-08-17T05:46:20.260Z,73564.16
2022-08-17T05:47:53.635Z,73647.16
2022-08-17T05:49:28.090Z,73605.66
2022-08-17T05:51:09.819Z,73542.44
2022-08-17T05:52:47.767Z,73560.22
2022-08-17T05:54:24.026Z,73512.78
2022-08-17T05:56:04.501Z,73627.41
2022-08-17T05:58:00.782Z,73611.59
2022-08-17T05:59:36.273Z,73763.75
2022-08-17T06:01:18.905Z,73698.53
2022-08-17T06:02:52.928Z,73742.00
2022-08-17T06:04:32.797Z,73828.94
2022-08-17T06:06:12.542Z,73623.44
2022-08-17T06:07:50.895Z,73548.38
2022-08-17T06:09:34.102Z,73631.34
2022-08-17T06:11:14.303Z,73619.50
2022-08-17T06:13:00.304Z,73510.81
2022-08-17T06:15:02.522Z,73467.34
2022-08-17T06:16:38.606Z,73449.56
2022-08-17T06:18:15.982Z,73358.69
2022-08-17T06:20:00.601Z,73469.31
2022-08-17T06:21:36.737Z,73639.25
2022-08-17T06:23:14.835Z,73560.22
2022-08-17T06:25:14.728Z,73493.03
2022-08-17T06:26:48.872Z,73619.50
2022-08-17T06:28:28.276Z,73536.50
2022-08-17T06:30:15.658Z,73623.44
2022-08-17T06:31:49.470Z,73718.28
2022-08-17T06:33:26.745Z,73789.44
2022-08-17T06:35:03.428Z,73862.53
2022-08-17T06:36:55.545Z,73884.28
2022-08-17T06:38:47.409Z,73917.88
2022-08-17T06:40:39.524Z,73931.69
2022-08-17T06:43:02.331Z,73977.16
2022-08-17T06:44:10.335Z,74107.56
2022-08-17T06:45:49.962Z,74151.06
2022-08-17T06:47:28.568Z,74208.38
2022-08-17T06:49:08.396Z,74176.75
2022-08-17T06:50:48.641Z,74214.28
2022-08-17T06:52:55.544Z,74220.22
2022-08-17T06:54:47.506Z,74234.06
2022-08-17T06:56:57.487Z,74259.75
2022-08-17T06:58:32.773Z,74251.84
2022-08-17T07:00:17.409Z,74271.59
2022-08-17T07:01:52.628Z,74265.69
2022-08-17T07:03:26.239Z,74232.06
2022-08-17T07:05:02.333Z,74232.06
2022-08-17T07:06:45.745Z,74275.56
2022-08-17T07:08:36.898Z,74305.19
2022-08-17T07:10:12.126Z,74330.88
2022-08-17T07:11:54.847Z,74285.44
2022-08-17T07:13:31.648Z,74285.44
2022-08-17T07:15:10.577Z,74330.88
2022-08-17T07:16:48.898Z,74338.78
2022-08-17T07:18:24.082Z,74330.88
2022-08-17T07:20:04.827Z,74307.19
2022-08-17T07:21:41.329Z,74334.84
2022-08-17T07:23:27.840Z,74322.97
2022-08-17T07:25:03.386Z,74326.94
2022-08-17T07:26:37.752Z,74330.88
2022-08-17T07:28:14.450Z,74334.84
2022-08-17T07:29:51.233Z,74366.47
2022-08-17T07:31:26.635Z,74342.75
2022-08-17T07:33:08.911Z,74338.78
2022-08-17T07:35:11.898Z,74342.75
2022-08-17T07:36:45.308Z,74326.94
2022-08-17T07:38:25.700Z,74350.66
2022-08-17T07:40:16.238Z,74334.84
2022-08-17T07:41:53.219Z,74307.19
2022-08-17T07:43:45.953Z,74324.97
2022-08-17T07:45:37.585Z,74319.03
2022-08-17T07:47:34.807Z,74342.75
2022-08-17T07:49:11.913Z,74279.50
2022-08-17T07:50:50.456Z,74261.72
2022-08-17T07:52:50.874Z,74255.78
2022-08-17T07:54:24.359Z,74315.09
2022-08-17T07:55:58.873Z,74346.69
2022-08-17T07:57:36.548Z,74342.75
2022-08-17T07:59:16.434Z,74291.38
2022-08-17T08:01:16.188Z,74277.53
2022-08-17T08:03:02.622Z,74299.28
2022-08-17T08:06:50.213Z,74303.22
2022-08-17T08:08:31.982Z,74305.19
2022-08-17T08:10:36.037Z,74297.28
2022-08-17T08:12:24.339Z,74285.44
2022-08-17T08:14:33.050Z,74275.56
2022-08-17T08:16:18.116Z,74263.69
2022-08-17T08:17:57.254Z,74285.44
2022-08-17T08:19:32.257Z,74247.88
2022-08-17T08:21:09.800Z,74285.44
2022-08-17T08:22:53.010Z,74279.50
2022-08-17T08:24:41.939Z,74261.72
2022-08-17T08:26:26.915Z,74216.28
2022-08-17T08:28:07.914Z,74275.56
2022-08-17T08:29:40.983Z,74236.03
2022-08-17T08:31:43.354Z,74251.84
2022-08-17T08:33:30.775Z,74238.00
2022-08-17T08:35:07.210Z,74257.78
2022-08-17T08:37:02.028Z,74216.28
2022-08-17T08:38:40.164Z,74194.53
2022-08-17T08:40:13.506Z,74184.66
2022-08-17T08:41:59.807Z,74287.41
2022-08-17T08:43:36.595Z,74226.16
2022-08-17T08:45:17.012Z,74243.94
2022-08-17T08:46:53.211Z,74245.91
2022-08-17T08:48:58.111Z,74275.56
2022-08-17T08:50:40.876Z,74238.00
2022-08-17T08:52:31.488Z,74247.88
2022-08-17T08:54:13.899Z,74279.50
2022-08-17T08:55:54.265Z,74275.56
2022-08-17T08:57:34.272Z,74285.44
2022-08-17T08:59:26.346Z,74245.91
2022-08-17T09:01:01.083Z,74222.19
2022-08-17T09:02:37.528Z,74232.06
2022-08-17T09:04:29.249Z,74212.31
2022-08-17T09:06:37.915Z,74267.66
2022-08-17T09:08:16.356Z,74247.88
2022-08-17T09:09:56.177Z,74273.59
2022-08-17T09:12:02.282Z,74263.69
2022-08-17T09:13:45.626Z,74255.78
2022-08-17T09:15:34.151Z,74226.16
2022-08-17T09:17:19.894Z,74202.44
2022-08-17T09:19:04.440Z,74184.66
2022-08-17T09:20:49.524Z,74184.66
2022-08-17T09:22:31.832Z,74216.28
2022-08-17T09:24:13.106Z,74184.66
2022-08-17T09:25:50.198Z,74182.69
2022-08-17T09:27:39.105Z,74172.78
2022-08-17T09:29:14.787Z,74149.06
2022-08-17T09:30:50.531Z,74151.06
2022-08-17T09:32:38.461Z,74164.88
2022-08-17T09:34:17.251Z,74129.31
2022-08-17T09:35:57.696Z,74137.22
2022-08-17T09:37:50.849Z,74192.56
2022-08-17T09:39:47.557Z,74192.56
2022-08-17T09:41:25.058Z,74172.78
2022-08-17T09:43:09.724Z,74212.31
2022-08-17T09:45:01.873Z,74234.06
2022-08-17T09:46:38.972Z,74239.97
2022-08-17T09:48:12.712Z,74259.75
2022-08-17T09:49:51.948Z,74241.97
2022-08-17T09:51:31.247Z,74228.13
2022-08-17T09:53:04.911Z,74216.28
2022-08-17T09:54:40.670Z,74192.56
2022-08-17T09:56:17.404Z,74166.88
2022-08-17T09:58:05.760Z,74166.88
2022-08-17T09:59:42.060Z,74151.06
2022-08-17T10:01:24.516Z,74176.75
2022-08-17T10:03:17.047Z,74147.09
2022-08-17T10:04:55.516Z,74137.22
2022-08-17T10:06:31.648Z,74188.59
2022-08-17T10:08:09.861Z,74160.94
2022-08-17T10:09:50.854Z,74156.97
2022-08-17T10:11:52.762Z,74162.91
2022-08-17T10:13:36.126Z,74123.38
2022-08-17T10:15:15.405Z,74141.16
2022-08-17T10:16:56.171Z,74155.00
2022-08-17T10:18:41.537Z,74180.69
2022-08-17T10:20:30.683Z,74119.44
2022-08-17T10:22:35.065Z,74075.97
2022-08-17T10:24:29.107Z,74137.22
2022-08-17T10:26:14.259Z,74192.56
2022-08-17T10:27:52.591Z,74166.88
2022-08-17T10:29:29.090Z,74129.31
2022-08-17T10:31:33.685Z,74156.97
2022-08-17T10:33:03.379Z,74151.06
2022-08-17T10:35:04.088Z,74127.34
2022-08-17T10:36:47.835Z,74155.00
2022-08-17T10:38:38.526Z,74162.91
2022-08-17T10:40:26.481Z,74133.28
2022-08-17T10:42:04.866Z,74133.28
2022-08-17T10:44:35.373Z,74121.41
2022-08-17T10:46:27.934Z,74099.66
2022-08-17T10:48:05.192Z,74125.38
2022-08-17T10:49:44.765Z,74085.84
2022-08-17T10:51:38.358Z,74038.41
2022-08-17T10:53:46.327Z,74105.59
2022-08-17T10:55:21.044Z,74147.09
2022-08-17T10:56:56.136Z,74121.41
2022-08-17T10:58:38.612Z,74117.47
2022-08-17T11:00:31.824Z,74160.94
2022-08-17T11:02:05.252Z,74141.16
2022-08-17T11:03:41.971Z,74101.66
2022-08-17T11:05:37.945Z,74066.06
2022-08-17T11:07:16.154Z,74113.50
2022-08-17T11:08:53.020Z,74113.50
2022-08-17T11:10:29.318Z,74153.03
2022-08-17T11:12:11.833Z,74153.03
2022-08-17T11:14:05.132Z,74127.34
2022-08-17T11:15:58.874Z,74109.56
2022-08-17T11:17:50.278Z,74127.34
2022-08-17T11:19:29.788Z,74123.38
2022-08-17T11:21:23.745Z,74119.44
2022-08-17T11:23:06.660Z,74147.09
2022-08-17T11:24:43.433Z,74147.09
2022-08-17T11:26:27.079Z,74160.94
2022-08-17T11:28:20.279Z,74137.22
2022-08-17T11:30:02.413Z,74172.78
2022-08-17T11:31:46.107Z,74145.13
2022-08-17T11:33:38.234Z,74135.25
2022-08-17T11:35:26.883Z,74121.41
2022-08-17T11:37:01.934Z,74149.06
2022-08-17T11:38:58.790Z,74117.47
2022-08-17T11:40:39.013Z,74101.66
2022-08-17T11:42:26.159Z,74070.03
2022-08-17T11:44:16.037Z,74083.88
2022-08-17T11:45:52.842Z,74075.97
2022-08-17T11:48:23.808Z,74121.41
2022-08-17T11:50:12.925Z,74125.38
2022-08-17T11:51:52.515Z,74117.47
2022-08-17T11:53:39.668Z,74127.34
2022-08-17T11:55:36.663Z,74145.13
2022-08-17T11:57:21.826Z,74137.22
2022-08-17T11:58:55.146Z,74143.16
2022-08-17T12:00:49.809Z,74125.38
2022-08-17T12:02:32.646Z,74131.28
2022-08-17T12:04:28.960Z,74153.03
2022-08-17T12:06:21.073Z,74129.31
2022-08-17T12:07:54.988Z,74184.66
2022-08-17T12:09:31.179Z,74164.88
2022-08-17T12:11:07.866Z,74141.16
2022-08-17T12:12:44.719Z,74153.03
2022-08-17T12:14:45.356Z,74139.19
2022-08-17T12:16:24.793Z,74158.97
2022-08-17T12:17:59.085Z,74174.78
2022-08-17T12:19:34.436Z,74172.78
2022-08-17T12:21:18.521Z,74141.16
2022-08-17T12:23:01.452Z,74145.13
2022-08-17T12:24:42.811Z,74141.16
2022-08-17T12:26:24.548Z,74147.09
2022-08-17T12:28:06.706Z,74147.09
2022-08-17T12:29:43.670Z,74164.88
2022-08-17T12:31:22.767Z,74166.88
2022-08-17T12:32:57.538Z,74184.66
2022-08-17T12:34:36.524Z,74153.03
2022-08-17T12:36:15.540Z,74160.94
2022-08-17T12:37:53.671Z,74137.22
2022-08-17T12:39:28.243Z,74141.16
2022-08-17T12:41:28.795Z,74182.69
2022-08-17T12:43:03.876Z,74149.06
2022-08-17T12:44:46.275Z,74184.66
2022-08-17T12:46:24.222Z,74182.69
2022-08-17T12:48:08.202Z,74184.66
2022-08-17T12:49:42.919Z,74190.56
2022-08-17T12:51:17.666Z,74204.41
2022-08-17T12:52:56.465Z,74194.53
2022-08-17T12:54:47.835Z,74184.66
2022-08-17T12:56:21.614Z,74178.72
2022-08-17T12:57:59.098Z,74204.41
2022-08-17T12:59:34.447Z,74192.56
2022-08-17T13:01:14.509Z,74224.19
2022-08-17T13:02:58.287Z,74216.28
2022-08-17T13:04:32.094Z,74236.03
2022-08-17T13:06:07.134Z,74243.94
2022-08-17T13:07:47.155Z,74239.97
2022-08-17T13:09:22.496Z,74216.28
2022-08-17T13:11:16.813Z,74236.03
2022-08-17T13:12:51.361Z,74236.03
2022-08-17T13:14:28.029Z,74234.06
2022-08-17T13:16:01.367Z,74265.69
2022-08-17T13:17:36.485Z,74265.69
2022-08-17T13:19:14.807Z,74239.97
2022-08-17T13:20:55.192Z,74247.88
2022-08-17T13:22:29.848Z,74245.91
2022-08-17T13:24:05.404Z,74239.97
2022-08-17T13:25:38.960Z,74224.19
2022-08-17T13:27:15.816Z,74239.97
2022-08-17T13:28:50.533Z,74243.94
2022-08-17T13:30:28.490Z,74249.88
2022-08-17T13:32:05.302Z,74291.38
2022-08-17T13:33:46.682Z,74283.47
2022-08-17T13:35:39.290Z,74275.56
2022-08-17T13:37:29.393Z,74293.34
2022-08-17T13:39:17.305Z,74291.38
2022-08-17T13:40:53.544Z,74291.38
2022-08-17T13:42:53.316Z,74301.25
2022-08-17T13:44:35.243Z,74315.09
2022-08-17T13:46:11.222Z,74319.03
2022-08-17T13:47:44.603Z,74305.19
2022-08-17T13:49:20.594Z,74315.09
2022-08-17T13:50:56.933Z,74322.97
2022-08-17T13:52:41.398Z,74330.88
2022-08-17T13:54:22.357Z,74350.66
2022-08-17T13:56:37.027Z,74366.47
2022-08-17T13:58:06.682Z,74362.50
2022-08-17T13:59:54.600Z,74366.47
2022-08-17T14:01:36.752Z,74344.72
2022-08-17T14:03:10.074Z,74342.75
2022-08-17T14:04:44.689Z,74350.66
2022-08-17T14:06:53.427Z,74378.31
2022-08-17T14:08:12.371Z,74390.19
2022-08-17T14:09:49.272Z,74400.06
2022-08-17T14:11:24.193Z,74398.09
2022-08-17T14:12:57.915Z,74402.03
2022-08-17T14:14:33.197Z,74406.00
2022-08-17T14:16:06.937Z,74409.94
2022-08-17T14:17:42.601Z,74421.81
2022-08-17T14:19:16.270Z,74417.84
2022-08-17T14:20:54.383Z,74425.75
2022-08-17T14:22:32.187Z,74429.72
2022-08-17T14:24:06.682Z,74425.75
2022-08-17T14:25:40.688Z,74429.72
2022-08-17T14:27:13.826Z,74417.84
2022-08-17T14:28:54.557Z,74419.81
2022-08-17T14:30:30.304Z,74427.72
2022-08-17T14:32:15.559Z,74441.56
2022-08-17T14:33:49.143Z,74447.50
2022-08-17T14:35:24.523Z,74471.22
2022-08-17T14:36:58.060Z,74469.22
2022-08-17T14:38:31.244Z,74473.19
2022-08-17T14:40:06.815Z,74469.22
2022-08-17T14:41:40.937Z,74477.13
2022-08-17T14:43:16.535Z,74477.13
2022-08-17T14:44:50.625Z,74490.97
2022-08-17T14:46:27.691Z,74496.91
2022-08-17T14:48:08.028Z,74504.81
2022-08-17T14:49:41.171Z,74504.81
2022-08-17T14:51:14.955Z,74512.72
2022-08-17T14:52:49.078Z,74516.66
2022-08-17T14:54:32.952Z,74524.56
2022-08-17T14:56:08.217Z,74524.56
2022-08-17T14:57:46.103Z,74524.56
2022-08-17T14:59:19.654Z,74534.44
2022-08-17T15:00:53.257Z,74540.38
2022-08-17T15:02:31.151Z,74552.25
2022-08-17T15:04:04.280Z,74552.25
2022-08-17T15:05:39.052Z,74556.19
2022-08-17T15:07:12.485Z,74564.09
2022-08-17T15:08:45.420Z,74570.03
2022-08-17T15:10:19.068Z,74572.00
2022-08-17T15:11:54.496Z,74579.91
2022-08-17T15:13:28.336Z,74583.88
2022-08-17T15:15:08.248Z,74591.78
2022-08-17T15:16:41.837Z,74601.66
2022-08-17T15:18:15.984Z,74605.59
2022-08-17T15:19:49.413Z,74611.53
2022-08-17T15:21:22.863Z,74615.47
2022-08-17T15:22:57.893Z,74619.44
2022-08-17T15:24:31.394Z,74631.28
2022-08-17T15:26:05.031Z,74639.19
2022-08-17T15:27:41.503Z,74645.13
2022-08-17T15:29:15.316Z,74653.03
2022-08-17T15:30:49.195Z,74662.91
2022-08-17T15:32:27.705Z,74666.88
2022-08-17T15:34:01.167Z,74668.84
2022-08-17T15:35:34.439Z,74676.75
2022-08-17T15:37:08.062Z,74682.69
2022-08-17T15:38:44.519Z,74688.63
2022-08-17T15:40:18.267Z,74698.50
2022-08-17T15:41:58.030Z,74706.41
2022-08-17T15:43:33.149Z,74706.41
2022-08-17T15:45:07.759Z,74714.31
2022-08-17T15:46:40.686Z,74718.25
2022-08-17T15:48:19.057Z,74724.19
2022-08-17T15:49:56.645Z,74738.03
2022-08-17T15:51:34.371Z,74740.00
2022-08-17T15:53:07.812Z,74745.94
2022-08-17T15:54:41.055Z,74749.88
2022-08-17T15:56:19.161Z,74757.78
2022-08-17T15:57:52.678Z,74759.75
2022-08-17T15:59:26.321Z,74759.75
2022-08-17T16:01:14.312Z,74767.66
2022-08-17T16:03:45.549Z,74769.66
2022-08-17T16:04:44.451Z,74781.50
2022-08-17T16:06:19.970Z,74789.41
2022-08-17T16:07:56.356Z,74789.41
2022-08-17T16:09:29.840Z,74795.34
2022-08-17T16:11:04.284Z,74801.28
2022-08-17T16:12:38.641Z,74799.28
2022-08-17T16:14:12.154Z,74807.19
2022-08-17T16:15:57.288Z,74809.19
2022-08-17T16:17:39.682Z,74813.13
2022-08-17T16:19:14.750Z,74815.09
2022-08-17T16:20:52.354Z,74821.03
2022-08-17T16:22:36.977Z,74823.00
2022-08-17T16:24:12.853Z,74828.94
2022-08-17T16:25:53.101Z,74832.91
2022-08-17T16:27:29.937Z,74836.84
2022-08-17T16:29:04.926Z,74842.78
2022-08-17T16:30:38.838Z,74842.78
2022-08-17T16:32:31.909Z,74852.66
2022-08-17T16:34:16.753Z,74858.59
2022-08-17T16:35:52.035Z,74864.53
2022-08-17T16:37:25.787Z,74868.47
2022-08-17T16:39:04.501Z,74876.38
2022-08-17T16:40:38.003Z,74878.34
2022-08-17T16:42:31.600Z,74888.25
2022-08-17T16:44:05.038Z,74900.09
2022-08-17T16:45:41.125Z,74913.94
2022-08-17T16:47:17.926Z,74923.81
2022-08-17T16:48:52.683Z,74933.69
2022-08-17T16:50:26.010Z,74941.59
2022-08-17T16:52:03.798Z,74947.53
2022-08-17T16:53:37.778Z,74951.50
2022-08-17T16:55:13.478Z,74953.47
2022-08-17T16:56:46.806Z,74963.34
2022-08-17T16:58:20.582Z,74959.41
2022-08-17T16:59:54.044Z,74965.31
2022-08-17T17:01:33.541Z,74979.16
2022-08-17T17:03:19.955Z,74983.13
2022-08-17T17:05:12.227Z,74983.13
2022-08-17T17:06:56.190Z,74991.03
2022-08-17T17:08:30.820Z,75002.88
2022-08-17T17:10:16.461Z,75020.66
2022-08-17T17:11:55.484Z,75018.69
2022-08-17T17:13:41.712Z,75028.56
2022-08-17T17:15:20.092Z,75034.50
2022-08-17T17:17:06.479Z,75042.41
2022-08-17T17:18:44.461Z,75044.38
2022-08-17T17:20:25.189Z,75042.41
2022-08-17T17:22:22.523Z,75042.41
2022-08-17T17:23:58.621Z,75040.44
2022-08-17T17:25:49.667Z,75054.28
2022-08-17T17:27:23.341Z,75062.19
2022-08-17T17:29:10.426Z,75070.09
2022-08-17T17:30:47.138Z,75070.09
2022-08-17T17:32:39.819Z,75074.03
2022-08-17T17:34:16.732Z,75072.06
2022-08-17T17:35:49.963Z,75078.00
2022-08-17T17:37:27.970Z,75083.94
2022-08-17T17:39:05.510Z,75085.91
2022-08-17T17:40:43.961Z,75078.00
2022-08-17T17:42:28.826Z,75089.84
2022-08-17T17:44:05.530Z,75095.78
2022-08-17T17:45:43.220Z,75097.75
2022-08-17T17:47:16.805Z,75105.66
2022-08-17T17:48:50.147Z,75117.53
2022-08-17T17:50:30.475Z,75117.53
2022-08-17T17:52:14.254Z,75121.47
2022-08-17T17:53:55.062Z,75129.38
2022-08-17T17:55:28.882Z,75127.41
2022-08-17T17:57:10.582Z,75133.34
2022-08-17T17:58:52.687Z,75133.34
2022-08-17T18:00:41.252Z,75143.22
2022-08-17T18:02:36.637Z,75155.09
2022-08-17T18:04:20.699Z,75161.00
2022-08-17T18:06:07.442Z,75164.97
2022-08-17T18:07:53.251Z,75168.91
2022-08-17T18:09:41.374Z,75168.91
2022-08-17T18:11:24.427Z,75180.78
2022-08-17T18:13:16.684Z,75192.63
2022-08-17T18:15:04.132Z,75196.59
2022-08-17T18:16:45.500Z,75208.47
2022-08-17T18:18:21.058Z,75212.41
2022-08-17T18:19:56.183Z,75216.38
2022-08-17T18:21:38.101Z,75216.38
2022-08-17T18:23:11.997Z,75224.28
2022-08-17T18:24:46.921Z,75228.22
2022-08-17T18:26:38.070Z,75236.13
2022-08-17T18:28:26.301Z,75238.09
2022-08-17T18:30:03.443Z,75242.06
2022-08-17T18:31:40.150Z,75244.03
2022-08-17T18:33:23.137Z,75251.94
2022-08-17T18:34:56.452Z,75251.94
2022-08-17T18:36:31.558Z,75255.91
2022-08-17T18:38:29.686Z,75261.81
2022-08-17T18:40:22.064Z,75263.81
2022-08-17T18:41:57.518Z,75277.63
2022-08-17T18:43:43.849Z,75279.63
2022-08-17T18:45:47.333Z,75291.47
2022-08-17T18:47:20.463Z,75295.44
2022-08-17T18:49:08.113Z,75297.41
2022-08-17T18:50:44.402Z,75307.28
2022-08-17T18:52:36.879Z,75311.25
2022-08-17T18:54:25.465Z,75311.25
2022-08-17T18:56:21.351Z,75319.16
2022-08-17T18:57:57.512Z,75323.09
2022-08-17T18:59:44.537Z,75331.00
2022-08-17T19:01:19.100Z,75333.00
2022-08-17T19:02:56.305Z,75338.91
2022-08-17T19:04:32.774Z,75346.81
2022-08-17T19:06:22.817Z,75342.88
2022-08-17T19:08:14.327Z,75358.69
2022-08-17T19:09:49.692Z,75362.63
2022-08-17T19:11:28.641Z,75366.59
2022-08-17T19:13:02.153Z,75370.53
2022-08-17T19:14:46.257Z,75384.38
2022-08-17T19:16:25.359Z,75390.31
2022-08-17T19:18:04.487Z,75396.25
2022-08-17T19:19:39.099Z,75400.19
2022-08-17T19:21:24.089Z,75408.09
2022-08-17T19:23:04.763Z,75408.09
2022-08-17T19:24:47.526Z,75414.03
2022-08-17T19:26:51.160Z,75421.94
2022-08-17T19:28:25.602Z,75425.91
2022-08-17T19:30:05.537Z,75435.78
2022-08-17T19:31:41.779Z,75439.75
2022-08-17T19:33:15.376Z,75449.63
2022-08-17T19:34:48.886Z,75457.53
2022-08-17T19:36:22.317Z,75457.53
2022-08-17T19:38:12.905Z,75457.53
2022-08-17T19:39:52.909Z,75463.47